sensor_id;sensor_type;location;lat;lon;timestamp;P1;durP1;ratioP1;P2;durP2;ratioP2
11328;SDS011;5719;42.714;23.732;2023-06-14T00:00:17;17.27;;;10.52;;
11328;SDS011;5719;42.714;23.732;2023-06-14T00:02:45;13.88;;;9.20;;
11328;SDS011;5719;42.714;23.732;2023-06-14T00:05:12;16.63;;;9.90;;
11328;SDS011;5719;42.714;23.732;2023-06-14T00:07:39;16.02;;;9.65;;
11328;SDS011;5719;42.714;23.732;2023-06-14T00:10:09;17.67;;;9.00;;
11328;SDS011;5719;42.714;23.732;2023-06-14T00:12:37;13.40;;;10.32;;
11328;SDS011;5719;42.714;23.732;2023-06-14T00:15:07;12.90;;;9.35;;
11328;SDS011;5719;42.714;23.732;2023-06-14T00:17:34;18.02;;;10.52;;
11328;SDS011;5719;42.714;23.732;2023-06-14T00:20:04;17.27;;;9.35;;
11328;SDS011;5719;42.714;23.732;2023-06-14T00:22:33;15.85;;;9.43;;
11328;SDS011;5719;42.714;23.732;2023-06-14T00:25:01;11.75;;;9.10;;
11328;SDS011;5719;42.714;23.732;2023-06-14T00:27:28;18.27;;;7.90;;
11328;SDS011;5719;42.714;23.732;2023-06-14T00:29:55;12.48;;;6.35;;
11328;SDS011;5719;42.714;23.732;2023-06-14T00:32:24;7.97;;;6.25;;
11328;SDS011;5719;42.714;23.732;2023-06-14T00:34:53;10.32;;;5.10;;
11328;SDS011;5719;42.714;23.732;2023-06-14T00:37:19;6.05;;;4.80;;
11328;SDS011;5719;42.714;23.732;2023-06-14T00:39:47;5.40;;;4.60;;
11328;SDS011;5719;42.714;23.732;2023-06-14T00:42:22;9.15;;;4.18;;
11328;SDS011;5719;42.714;23.732;2023-06-14T00:44:50;5.32;;;4.80;;
11328;SDS011;5719;42.714;23.732;2023-06-14T00:47:17;7.93;;;4.53;;
11328;SDS011;5719;42.714;23.732;2023-06-14T00:49:46;9.70;;;4.20;;
11328;SDS011;5719;42.714;23.732;2023-06-14T00:52:15;4.35;;;3.95;;
11328;SDS011;5719;42.714;23.732;2023-06-14T00:54:42;4.57;;;4.18;;
11328;SDS011;5719;42.714;23.732;2023-06-14T00:57:10;5.25;;;4.35;;
11328;SDS011;5719;42.714;23.732;2023-06-14T00:59:40;7.25;;;4.68;;
11328;SDS011;5719;42.714;23.732;2023-06-14T01:02:09;7.85;;;4.65;;
11328;SDS011;5719;42.714;23.732;2023-06-14T01:04:37;6.88;;;5.68;;
11328;SDS011;5719;42.714;23.732;2023-06-14T01:07:10;9.02;;;5.30;;
11328;SDS011;5719;42.714;23.732;2023-06-14T01:12:24;8.23;;;4.47;;
11328;SDS011;5719;42.714;23.732;2023-06-14T01:14:58;7.82;;;5.22;;
11328;SDS011;5719;42.714;23.732;2023-06-14T01:17:27;10.65;;;5.40;;
11328;SDS011;5719;42.714;23.732;2023-06-14T01:19:57;7.43;;;5.60;;
11328;SDS011;5719;42.714;23.732;2023-06-14T01:22:26;10.65;;;5.22;;
11328;SDS011;5719;42.714;23.732;2023-06-14T01:24:55;6.05;;;5.05;;
11328;SDS011;5719;42.714;23.732;2023-06-14T01:27:23;8.20;;;6.25;;
11328;SDS011;5719;42.714;23.732;2023-06-14T01:29:53;8.93;;;6.38;;
11328;SDS011;5719;42.714;23.732;2023-06-14T01:32:23;6.88;;;5.78;;
11328;SDS011;5719;42.714;23.732;2023-06-14T01:34:51;7.80;;;6.05;;
11328;SDS011;5719;42.714;23.732;2023-06-14T01:37:17;7.60;;;5.65;;
11328;SDS011;5719;42.714;23.732;2023-06-14T01:39:46;9.32;;;5.47;;
11328;SDS011;5719;42.714;23.732;2023-06-14T01:42:16;6.72;;;5.75;;
11328;SDS011;5719;42.714;23.732;2023-06-14T01:44:43;6.57;;;5.35;;
11328;SDS011;5719;42.714;23.732;2023-06-14T01:47:11;9.63;;;5.25;;
11328;SDS011;5719;42.714;23.732;2023-06-14T01:49:38;7.72;;;5.30;;
11328;SDS011;5719;42.714;23.732;2023-06-14T01:52:06;6.03;;;4.63;;
11328;SDS011;5719;42.714;23.732;2023-06-14T01:54:35;8.40;;;4.70;;
11328;SDS011;5719;42.714;23.732;2023-06-14T01:57:07;4.88;;;4.20;;
11328;SDS011;5719;42.714;23.732;2023-06-14T01:59:35;6.68;;;4.65;;
11328;SDS011;5719;42.714;23.732;2023-06-14T02:02:02;8.48;;;4.95;;
11328;SDS011;5719;42.714;23.732;2023-06-14T02:04:29;10.10;;;5.65;;
11328;SDS011;5719;42.714;23.732;2023-06-14T02:06:56;7.15;;;5.70;;
11328;SDS011;5719;42.714;23.732;2023-06-14T02:09:23;8.18;;;5.88;;
11328;SDS011;5719;42.714;23.732;2023-06-14T02:11:50;7.32;;;6.30;;
11328;SDS011;5719;42.714;23.732;2023-06-14T02:14:17;10.93;;;5.70;;
11328;SDS011;5719;42.714;23.732;2023-06-14T02:16:45;7.45;;;5.72;;
11328;SDS011;5719;42.714;23.732;2023-06-14T02:19:14;11.25;;;5.13;;
11328;SDS011;5719;42.714;23.732;2023-06-14T02:21:41;6.57;;;4.78;;
11328;SDS011;5719;42.714;23.732;2023-06-14T02:24:08;8.10;;;4.30;;
11328;SDS011;5719;42.714;23.732;2023-06-14T02:26:35;7.82;;;4.07;;
11328;SDS011;5719;42.714;23.732;2023-06-14T02:29:03;7.03;;;4.00;;
11328;SDS011;5719;42.714;23.732;2023-06-14T02:31:30;17.65;;;4.18;;
11328;SDS011;5719;42.714;23.732;2023-06-14T02:33:58;4.50;;;3.83;;
11328;SDS011;5719;42.714;23.732;2023-06-14T02:36:25;3.88;;;3.58;;
11328;SDS011;5719;42.714;23.732;2023-06-14T02:38:52;4.28;;;3.20;;
11328;SDS011;5719;42.714;23.732;2023-06-14T02:41:19;8.05;;;3.22;;
11328;SDS011;5719;42.714;23.732;2023-06-14T02:43:46;4.10;;;3.70;;
11328;SDS011;5719;42.714;23.732;2023-06-14T02:46:13;5.57;;;3.60;;
11328;SDS011;5719;42.714;23.732;2023-06-14T02:48:40;4.05;;;2.97;;
11328;SDS011;5719;42.714;23.732;2023-06-14T02:51:08;6.90;;;3.08;;
11328;SDS011;5719;42.714;23.732;2023-06-14T02:53:35;3.40;;;3.17;;
11328;SDS011;5719;42.714;23.732;2023-06-14T02:56:02;3.08;;;2.80;;
11328;SDS011;5719;42.714;23.732;2023-06-14T02:58:30;3.38;;;2.70;;
11328;SDS011;5719;42.714;23.732;2023-06-14T03:00:58;6.45;;;3.05;;
11328;SDS011;5719;42.714;23.732;2023-06-14T03:03:28;7.97;;;3.40;;
11328;SDS011;5719;42.714;23.732;2023-06-14T03:05:54;6.55;;;3.00;;
11328;SDS011;5719;42.714;23.732;2023-06-14T03:08:23;5.68;;;3.28;;
11328;SDS011;5719;42.714;23.732;2023-06-14T03:10:52;5.88;;;3.17;;
11328;SDS011;5719;42.714;23.732;2023-06-14T03:13:21;3.83;;;3.05;;
11328;SDS011;5719;42.714;23.732;2023-06-14T03:15:48;6.38;;;3.30;;
11328;SDS011;5719;42.714;23.732;2023-06-14T03:18:16;3.85;;;3.45;;
11328;SDS011;5719;42.714;23.732;2023-06-14T03:20:44;7.45;;;3.42;;
11328;SDS011;5719;42.714;23.732;2023-06-14T03:23:12;3.95;;;3.60;;
11328;SDS011;5719;42.714;23.732;2023-06-14T03:25:40;3.90;;;3.45;;
11328;SDS011;5719;42.714;23.732;2023-06-14T03:28:07;6.03;;;3.47;;
11328;SDS011;5719;42.714;23.732;2023-06-14T03:30:35;8.63;;;4.00;;
11328;SDS011;5719;42.714;23.732;2023-06-14T03:33:02;4.85;;;4.20;;
11328;SDS011;5719;42.714;23.732;2023-06-14T03:35:30;5.82;;;4.70;;
11328;SDS011;5719;42.714;23.732;2023-06-14T03:37:56;6.05;;;5.28;;
11328;SDS011;5719;42.714;23.732;2023-06-14T03:40:23;6.68;;;5.97;;
11328;SDS011;5719;42.714;23.732;2023-06-14T03:42:53;6.70;;;6.00;;
11328;SDS011;5719;42.714;23.732;2023-06-14T03:45:20;7.80;;;6.43;;
11328;SDS011;5719;42.714;23.732;2023-06-14T03:47:47;7.35;;;6.18;;
11328;SDS011;5719;42.714;23.732;2023-06-14T03:50:15;9.73;;;6.30;;
11328;SDS011;5719;42.714;23.732;2023-06-14T03:52:43;8.25;;;5.57;;
11328;SDS011;5719;42.714;23.732;2023-06-14T03:55:10;6.90;;;6.00;;
11328;SDS011;5719;42.714;23.732;2023-06-14T03:57:38;6.95;;;6.35;;
11328;SDS011;5719;42.714;23.732;2023-06-14T04:00:07;8.25;;;6.05;;
11328;SDS011;5719;42.714;23.732;2023-06-14T04:02:36;6.07;;;5.57;;
11328;SDS011;5719;42.714;23.732;2023-06-14T04:05:03;6.75;;;5.80;;
11328;SDS011;5719;42.714;23.732;2023-06-14T04:07:33;6.75;;;5.82;;
11328;SDS011;5719;42.714;23.732;2023-06-14T04:10:05;6.80;;;6.03;;
11328;SDS011;5719;42.714;23.732;2023-06-14T04:12:33;6.30;;;5.68;;
11328;SDS011;5719;42.714;23.732;2023-06-14T04:15:00;8.10;;;5.93;;
11328;SDS011;5719;42.714;23.732;2023-06-14T04:17:29;8.30;;;6.20;;
11328;SDS011;5719;42.714;23.732;2023-06-14T04:19:58;9.68;;;7.45;;
11328;SDS011;5719;42.714;23.732;2023-06-14T04:22:25;8.73;;;7.72;;
11328;SDS011;5719;42.714;23.732;2023-06-14T04:24:53;10.25;;;8.32;;
11328;SDS011;5719;42.714;23.732;2023-06-14T04:27:21;13.07;;;9.23;;
11328;SDS011;5719;42.714;23.732;2023-06-14T04:29:50;11.77;;;8.82;;
11328;SDS011;5719;42.714;23.732;2023-06-14T04:32:22;11.80;;;9.63;;
11328;SDS011;5719;42.714;23.732;2023-06-14T04:34:53;14.25;;;10.13;;
11328;SDS011;5719;42.714;23.732;2023-06-14T04:37:20;13.90;;;10.18;;
11328;SDS011;5719;42.714;23.732;2023-06-14T04:39:47;12.32;;;9.85;;
11328;SDS011;5719;42.714;23.732;2023-06-14T04:42:15;14.65;;;10.60;;
11328;SDS011;5719;42.714;23.732;2023-06-14T04:44:42;14.70;;;11.43;;
11328;SDS011;5719;42.714;23.732;2023-06-14T04:47:10;13.18;;;10.88;;
11328;SDS011;5719;42.714;23.732;2023-06-14T04:49:37;14.32;;;11.10;;
11328;SDS011;5719;42.714;23.732;2023-06-14T04:52:07;14.65;;;11.32;;
11328;SDS011;5719;42.714;23.732;2023-06-14T04:54:35;15.65;;;12.32;;
11328;SDS011;5719;42.714;23.732;2023-06-14T04:57:03;15.77;;;12.20;;
11328;SDS011;5719;42.714;23.732;2023-06-14T04:59:31;14.18;;;11.93;;
11328;SDS011;5719;42.714;23.732;2023-06-14T05:02:00;16.15;;;11.73;;
11328;SDS011;5719;42.714;23.732;2023-06-14T05:04:27;15.23;;;12.27;;
11328;SDS011;5719;42.714;23.732;2023-06-14T05:06:54;15.55;;;11.68;;
11328;SDS011;5719;42.714;23.732;2023-06-14T05:09:23;17.75;;;12.70;;
11328;SDS011;5719;42.714;23.732;2023-06-14T05:11:50;17.77;;;12.00;;
11328;SDS011;5719;42.714;23.732;2023-06-14T05:14:17;14.93;;;13.15;;
11328;SDS011;5719;42.714;23.732;2023-06-14T05:16:44;20.70;;;13.27;;
11328;SDS011;5719;42.714;23.732;2023-06-14T05:19:11;16.75;;;12.60;;
11328;SDS011;5719;42.714;23.732;2023-06-14T05:21:38;17.80;;;13.07;;
11328;SDS011;5719;42.714;23.732;2023-06-14T05:24:05;19.98;;;13.73;;
11328;SDS011;5719;42.714;23.732;2023-06-14T05:26:34;21.08;;;14.80;;
11328;SDS011;5719;42.714;23.732;2023-06-14T05:29:01;19.55;;;14.57;;
11328;SDS011;5719;42.714;23.732;2023-06-14T05:31:28;23.98;;;15.70;;
11328;SDS011;5719;42.714;23.732;2023-06-14T05:33:56;25.17;;;16.95;;
11328;SDS011;5719;42.714;23.732;2023-06-14T05:36:22;31.17;;;16.50;;
11328;SDS011;5719;42.714;23.732;2023-06-14T05:38:50;22.55;;;15.85;;
11328;SDS011;5719;42.714;23.732;2023-06-14T05:41:22;22.60;;;16.38;;
11328;SDS011;5719;42.714;23.732;2023-06-14T05:43:51;20.88;;;15.32;;
11328;SDS011;5719;42.714;23.732;2023-06-14T05:46:19;19.00;;;15.27;;
11328;SDS011;5719;42.714;23.732;2023-06-14T05:48:49;21.42;;;13.88;;
11328;SDS011;5719;42.714;23.732;2023-06-14T05:51:16;18.70;;;13.75;;
11328;SDS011;5719;42.714;23.732;2023-06-14T05:53:44;17.00;;;13.32;;
11328;SDS011;5719;42.714;23.732;2023-06-14T05:56:12;16.35;;;12.55;;
11328;SDS011;5719;42.714;23.732;2023-06-14T05:58:39;18.08;;;13.45;;
11328;SDS011;5719;42.714;23.732;2023-06-14T06:01:07;18.13;;;13.88;;
11328;SDS011;5719;42.714;23.732;2023-06-14T06:03:34;21.13;;;13.68;;
11328;SDS011;5719;42.714;23.732;2023-06-14T06:06:01;18.50;;;12.95;;
11328;SDS011;5719;42.714;23.732;2023-06-14T06:08:29;21.80;;;13.30;;
11328;SDS011;5719;42.714;23.732;2023-06-14T06:10:56;15.23;;;13.13;;
11328;SDS011;5719;42.714;23.732;2023-06-14T06:13:23;22.02;;;13.45;;
11328;SDS011;5719;42.714;23.732;2023-06-14T06:15:50;15.23;;;11.52;;
11328;SDS011;5719;42.714;23.732;2023-06-14T06:18:18;18.60;;;12.23;;
11328;SDS011;5719;42.714;23.732;2023-06-14T06:20:45;18.73;;;12.52;;
11328;SDS011;5719;42.714;23.732;2023-06-14T06:23:12;16.25;;;12.45;;
11328;SDS011;5719;42.714;23.732;2023-06-14T06:25:40;15.55;;;11.93;;
11328;SDS011;5719;42.714;23.732;2023-06-14T06:28:07;16.92;;;11.88;;
11328;SDS011;5719;42.714;23.732;2023-06-14T06:30:34;13.90;;;11.15;;
11328;SDS011;5719;42.714;23.732;2023-06-14T06:33:02;14.95;;;10.85;;
11328;SDS011;5719;42.714;23.732;2023-06-14T06:35:30;17.08;;;10.73;;
11328;SDS011;5719;42.714;23.732;2023-06-14T06:37:58;14.98;;;10.35;;
11328;SDS011;5719;42.714;23.732;2023-06-14T06:40:26;11.98;;;9.48;;
11328;SDS011;5719;42.714;23.732;2023-06-14T06:42:53;14.40;;;10.27;;
11328;SDS011;5719;42.714;23.732;2023-06-14T06:45:20;15.77;;;9.90;;
11328;SDS011;5719;42.714;23.732;2023-06-14T06:47:48;15.05;;;10.95;;
11328;SDS011;5719;42.714;23.732;2023-06-14T06:50:15;14.70;;;10.05;;
11328;SDS011;5719;42.714;23.732;2023-06-14T06:52:44;15.95;;;10.30;;
11328;SDS011;5719;42.714;23.732;2023-06-14T06:55:11;13.75;;;10.45;;
11328;SDS011;5719;42.714;23.732;2023-06-14T06:57:38;12.20;;;9.65;;
11328;SDS011;5719;42.714;23.732;2023-06-14T07:00:07;16.42;;;10.93;;
11328;SDS011;5719;42.714;23.732;2023-06-14T07:02:35;15.63;;;10.63;;
11328;SDS011;5719;42.714;23.732;2023-06-14T07:05:03;16.30;;;11.45;;
11328;SDS011;5719;42.714;23.732;2023-06-14T07:07:31;14.02;;;9.98;;
11328;SDS011;5719;42.714;23.732;2023-06-14T07:09:59;11.95;;;9.43;;
11328;SDS011;5719;42.714;23.732;2023-06-14T07:12:29;11.50;;;9.23;;
11328;SDS011;5719;42.714;23.732;2023-06-14T07:14:56;9.90;;;8.45;;
11328;SDS011;5719;42.714;23.732;2023-06-14T07:17:23;12.77;;;8.70;;
11328;SDS011;5719;42.714;23.732;2023-06-14T07:19:50;13.82;;;9.05;;
11328;SDS011;5719;42.714;23.732;2023-06-14T07:22:18;10.10;;;8.68;;
11328;SDS011;5719;42.714;23.732;2023-06-14T07:24:45;9.35;;;8.05;;
11328;SDS011;5719;42.714;23.732;2023-06-14T07:27:13;9.48;;;7.90;;
11328;SDS011;5719;42.714;23.732;2023-06-14T07:29:40;10.93;;;8.20;;
11328;SDS011;5719;42.714;23.732;2023-06-14T07:32:07;11.38;;;7.45;;
11328;SDS011;5719;42.714;23.732;2023-06-14T07:34:34;10.52;;;7.78;;
11328;SDS011;5719;42.714;23.732;2023-06-14T07:37:01;10.13;;;7.53;;
11328;SDS011;5719;42.714;23.732;2023-06-14T07:39:28;9.27;;;7.50;;
11328;SDS011;5719;42.714;23.732;2023-06-14T07:41:55;7.95;;;7.15;;
11328;SDS011;5719;42.714;23.732;2023-06-14T07:44:23;9.30;;;8.20;;
11328;SDS011;5719;42.714;23.732;2023-06-14T07:46:50;8.50;;;7.03;;
11328;SDS011;5719;42.714;23.732;2023-06-14T07:49:17;9.18;;;7.43;;
11328;SDS011;5719;42.714;23.732;2023-06-14T07:51:44;9.90;;;7.55;;
11328;SDS011;5719;42.714;23.732;2023-06-14T07:54:12;9.63;;;6.85;;
11328;SDS011;5719;42.714;23.732;2023-06-14T07:56:39;9.57;;;6.70;;
11328;SDS011;5719;42.714;23.732;2023-06-14T07:59:06;8.27;;;6.28;;
11328;SDS011;5719;42.714;23.732;2023-06-14T08:01:34;7.68;;;6.30;;
11328;SDS011;5719;42.714;23.732;2023-06-14T08:04:01;8.73;;;7.20;;
11328;SDS011;5719;42.714;23.732;2023-06-14T08:06:29;7.70;;;6.57;;
11328;SDS011;5719;42.714;23.732;2023-06-14T08:08:56;10.85;;;6.25;;
11328;SDS011;5719;42.714;23.732;2023-06-14T08:11:23;6.90;;;6.15;;
11328;SDS011;5719;42.714;23.732;2023-06-14T08:13:50;9.88;;;5.95;;
11328;SDS011;5719;42.714;23.732;2023-06-14T08:16:17;8.82;;;6.80;;
11328;SDS011;5719;42.714;23.732;2023-06-14T08:18:45;6.53;;;5.93;;
11328;SDS011;5719;42.714;23.732;2023-06-14T08:21:12;7.47;;;6.65;;
11328;SDS011;5719;42.714;23.732;2023-06-14T08:23:40;7.00;;;6.28;;
11328;SDS011;5719;42.714;23.732;2023-06-14T08:26:08;5.78;;;5.28;;
11328;SDS011;5719;42.714;23.732;2023-06-14T08:28:35;5.57;;;4.90;;
11328;SDS011;5719;42.714;23.732;2023-06-14T08:31:02;8.38;;;5.97;;
11328;SDS011;5719;42.714;23.732;2023-06-14T08:33:29;9.07;;;5.78;;
11328;SDS011;5719;42.714;23.732;2023-06-14T08:36:00;10.43;;;6.65;;
11328;SDS011;5719;42.714;23.732;2023-06-14T08:38:27;8.55;;;6.40;;
11328;SDS011;5719;42.714;23.732;2023-06-14T08:40:56;7.53;;;6.47;;
11328;SDS011;5719;42.714;23.732;2023-06-14T08:43:24;9.32;;;6.00;;
11328;SDS011;5719;42.714;23.732;2023-06-14T08:45:52;5.65;;;5.15;;
11328;SDS011;5719;42.714;23.732;2023-06-14T08:48:24;7.27;;;5.10;;
11328;SDS011;5719;42.714;23.732;2023-06-14T08:50:53;5.05;;;4.55;;
11328;SDS011;5719;42.714;23.732;2023-06-14T08:53:29;5.50;;;5.00;;
11328;SDS011;5719;42.714;23.732;2023-06-14T08:55:59;5.15;;;4.65;;
11328;SDS011;5719;42.714;23.732;2023-06-14T08:58:27;5.47;;;4.93;;
11328;SDS011;5719;42.714;23.732;2023-06-14T09:00:56;4.95;;;4.40;;
11328;SDS011;5719;42.714;23.732;2023-06-14T09:03:23;4.38;;;4.07;;
11328;SDS011;5719;42.714;23.732;2023-06-14T09:05:54;4.90;;;4.50;;
11328;SDS011;5719;42.714;23.732;2023-06-14T09:08:24;3.63;;;3.42;;
11328;SDS011;5719;42.714;23.732;2023-06-14T09:10:53;4.88;;;3.65;;
11328;SDS011;5719;42.714;23.732;2023-06-14T09:13:21;3.50;;;3.30;;
11328;SDS011;5719;42.714;23.732;2023-06-14T09:15:48;4.57;;;3.88;;
11328;SDS011;5719;42.714;23.732;2023-06-14T09:18:15;7.25;;;4.88;;
11328;SDS011;5719;42.714;23.732;2023-06-14T09:20:42;8.57;;;4.30;;
11328;SDS011;5719;42.714;23.732;2023-06-14T09:23:12;4.13;;;3.83;;
11328;SDS011;5719;42.714;23.732;2023-06-14T09:25:42;4.57;;;3.80;;
11328;SDS011;5719;42.714;23.732;2023-06-14T09:28:11;4.60;;;3.70;;
11328;SDS011;5719;42.714;23.732;2023-06-14T09:30:38;3.72;;;3.42;;
11328;SDS011;5719;42.714;23.732;2023-06-14T09:33:05;4.30;;;4.00;;
11328;SDS011;5719;42.714;23.732;2023-06-14T09:35:33;4.82;;;3.95;;
11328;SDS011;5719;42.714;23.732;2023-06-14T09:38:01;5.60;;;3.95;;
11328;SDS011;5719;42.714;23.732;2023-06-14T09:40:28;4.13;;;3.72;;
11328;SDS011;5719;42.714;23.732;2023-06-14T09:42:55;3.92;;;3.70;;
11328;SDS011;5719;42.714;23.732;2023-06-14T09:45:26;4.32;;;4.00;;
11328;SDS011;5719;42.714;23.732;2023-06-14T09:47:54;4.30;;;3.90;;
11328;SDS011;5719;42.714;23.732;2023-06-14T09:50:22;5.32;;;3.85;;
11328;SDS011;5719;42.714;23.732;2023-06-14T09:52:49;3.88;;;3.58;;
11328;SDS011;5719;42.714;23.732;2023-06-14T09:55:19;9.80;;;4.35;;
11328;SDS011;5719;42.714;23.732;2023-06-14T09:57:46;4.68;;;4.10;;
11328;SDS011;5719;42.714;23.732;2023-06-14T10:00:15;6.65;;;3.92;;
11328;SDS011;5719;42.714;23.732;2023-06-14T10:02:48;5.60;;;4.20;;
11328;SDS011;5719;42.714;23.732;2023-06-14T10:05:21;5.05;;;3.75;;
11328;SDS011;5719;42.714;23.732;2023-06-14T10:07:52;4.35;;;3.95;;
11328;SDS011;5719;42.714;23.732;2023-06-14T10:10:22;6.65;;;4.38;;
11328;SDS011;5719;42.714;23.732;2023-06-14T10:12:49;4.22;;;3.92;;
11328;SDS011;5719;42.714;23.732;2023-06-14T10:15:17;5.50;;;3.90;;
11328;SDS011;5719;42.714;23.732;2023-06-14T10:17:50;5.57;;;4.07;;
11328;SDS011;5719;42.714;23.732;2023-06-14T10:20:25;4.07;;;3.78;;
11328;SDS011;5719;42.714;23.732;2023-06-14T10:22:56;4.30;;;3.88;;
11328;SDS011;5719;42.714;23.732;2023-06-14T10:25:28;5.35;;;4.10;;
11328;SDS011;5719;42.714;23.732;2023-06-14T10:28:02;4.00;;;3.70;;
11328;SDS011;5719;42.714;23.732;2023-06-14T10:30:30;4.30;;;3.90;;
11328;SDS011;5719;42.714;23.732;2023-06-14T10:33:04;3.67;;;3.17;;
11328;SDS011;5719;42.714;23.732;2023-06-14T10:35:32;5.30;;;3.90;;
11328;SDS011;5719;42.714;23.732;2023-06-14T10:38:08;3.83;;;3.50;;
11328;SDS011;5719;42.714;23.732;2023-06-14T10:40:36;3.30;;;3.00;;
11328;SDS011;5719;42.714;23.732;2023-06-14T10:43:20;3.20;;;3.00;;
11328;SDS011;5719;42.714;23.732;2023-06-14T10:48:42;3.30;;;3.10;;
11328;SDS011;5719;42.714;23.732;2023-06-14T10:51:15;3.50;;;3.20;;
11328;SDS011;5719;42.714;23.732;2023-06-14T10:53:46;3.40;;;3.10;;
11328;SDS011;5719;42.714;23.732;2023-06-14T10:58:59;3.70;;;3.00;;
11328;SDS011;5719;42.714;23.732;2023-06-14T11:01:31;4.00;;;3.20;;
11328;SDS011;5719;42.714;23.732;2023-06-14T11:04:10;2.88;;;2.67;;
11328;SDS011;5719;42.714;23.732;2023-06-14T11:06:45;3.33;;;3.08;;
11328;SDS011;5719;42.714;23.732;2023-06-14T11:12:19;13.88;;;3.38;;
11328;SDS011;5719;42.714;23.732;2023-06-14T11:14:47;4.68;;;3.55;;
11328;SDS011;5719;42.714;23.732;2023-06-14T11:17:15;5.00;;;3.35;;
11328;SDS011;5719;42.714;23.732;2023-06-14T11:19:43;3.88;;;3.50;;
11328;SDS011;5719;42.714;23.732;2023-06-14T11:22:10;5.57;;;3.47;;
11328;SDS011;5719;42.714;23.732;2023-06-14T11:24:39;3.40;;;3.10;;
11328;SDS011;5719;42.714;23.732;2023-06-14T11:27:07;3.65;;;3.25;;
11328;SDS011;5719;42.714;23.732;2023-06-14T11:29:33;3.60;;;3.30;;
11328;SDS011;5719;42.714;23.732;2023-06-14T11:32:00;3.45;;;3.08;;
11328;SDS011;5719;42.714;23.732;2023-06-14T11:34:28;3.40;;;2.88;;
11328;SDS011;5719;42.714;23.732;2023-06-14T11:36:56;3.10;;;2.80;;
11328;SDS011;5719;42.714;23.732;2023-06-14T11:39:24;3.05;;;2.85;;
11328;SDS011;5719;42.714;23.732;2023-06-14T11:41:52;3.35;;;3.00;;
11328;SDS011;5719;42.714;23.732;2023-06-14T11:44:20;3.67;;;2.97;;
11328;SDS011;5719;42.714;23.732;2023-06-14T11:46:47;3.30;;;3.10;;
11328;SDS011;5719;42.714;23.732;2023-06-14T11:49:16;3.67;;;3.38;;
11328;SDS011;5719;42.714;23.732;2023-06-14T11:51:43;3.05;;;2.72;;
11328;SDS011;5719;42.714;23.732;2023-06-14T11:54:12;2.60;;;2.40;;
11328;SDS011;5719;42.714;23.732;2023-06-14T11:56:39;3.17;;;2.88;;
11328;SDS011;5719;42.714;23.732;2023-06-14T11:59:06;4.05;;;2.90;;
11328;SDS011;5719;42.714;23.732;2023-06-14T12:01:35;3.20;;;3.00;;
11328;SDS011;5719;42.714;23.732;2023-06-14T12:04:04;2.92;;;2.80;;
11328;SDS011;5719;42.714;23.732;2023-06-14T12:06:31;3.05;;;2.85;;
11328;SDS011;5719;42.714;23.732;2023-06-14T12:09:04;3.28;;;3.08;;
11328;SDS011;5719;42.714;23.732;2023-06-14T12:11:34;6.28;;;3.38;;
11328;SDS011;5719;42.714;23.732;2023-06-14T12:14:02;3.42;;;3.10;;
11328;SDS011;5719;42.714;23.732;2023-06-14T12:16:30;7.68;;;2.88;;
11328;SDS011;5719;42.714;23.732;2023-06-14T12:19:00;3.60;;;3.08;;
11328;SDS011;5719;42.714;23.732;2023-06-14T12:21:28;6.70;;;3.22;;
11328;SDS011;5719;42.714;23.732;2023-06-14T12:23:55;3.75;;;3.30;;
11328;SDS011;5719;42.714;23.732;2023-06-14T12:26:22;3.58;;;3.35;;
11328;SDS011;5719;42.714;23.732;2023-06-14T12:28:53;5.28;;;3.00;;
11328;SDS011;5719;42.714;23.732;2023-06-14T12:31:20;3.42;;;3.13;;
11328;SDS011;5719;42.714;23.732;2023-06-14T12:33:48;3.47;;;3.25;;
11328;SDS011;5719;42.714;23.732;2023-06-14T12:36:15;5.30;;;3.53;;
11328;SDS011;5719;42.714;23.732;2023-06-14T12:38:43;3.83;;;3.53;;
11328;SDS011;5719;42.714;23.732;2023-06-14T12:41:11;3.65;;;3.35;;
11328;SDS011;5719;42.714;23.732;2023-06-14T12:43:39;4.03;;;3.50;;
11328;SDS011;5719;42.714;23.732;2023-06-14T12:46:08;5.25;;;3.45;;
11328;SDS011;5719;42.714;23.732;2023-06-14T12:48:35;6.05;;;3.20;;
11328;SDS011;5719;42.714;23.732;2023-06-14T12:51:01;3.22;;;3.03;;
11328;SDS011;5719;42.714;23.732;2023-06-14T12:53:29;8.18;;;3.45;;
11328;SDS011;5719;42.714;23.732;2023-06-14T12:55:56;3.30;;;3.08;;
11328;SDS011;5719;42.714;23.732;2023-06-14T12:58:23;4.20;;;3.15;;
11328;SDS011;5719;42.714;23.732;2023-06-14T13:00:50;4.07;;;3.40;;
11328;SDS011;5719;42.714;23.732;2023-06-14T13:03:19;4.40;;;3.70;;
11328;SDS011;5719;42.714;23.732;2023-06-14T13:05:46;3.20;;;3.00;;
11328;SDS011;5719;42.714;23.732;2023-06-14T13:08:13;3.28;;;3.08;;
11328;SDS011;5719;42.714;23.732;2023-06-14T13:10:40;4.25;;;3.08;;
11328;SDS011;5719;42.714;23.732;2023-06-14T13:13:07;3.10;;;2.90;;
11328;SDS011;5719;42.714;23.732;2023-06-14T13:15:35;3.63;;;2.97;;
11328;SDS011;5719;42.714;23.732;2023-06-14T13:18:03;4.72;;;3.40;;
11328;SDS011;5719;42.714;23.732;2023-06-14T13:20:32;9.20;;;4.93;;
11328;SDS011;5719;42.714;23.732;2023-06-14T13:22:59;4.00;;;3.60;;
11328;SDS011;5719;42.714;23.732;2023-06-14T13:25:28;3.85;;;3.45;;
11328;SDS011;5719;42.714;23.732;2023-06-14T13:27:55;5.30;;;3.60;;
11328;SDS011;5719;42.714;23.732;2023-06-14T13:30:22;17.52;;;5.43;;
11328;SDS011;5719;42.714;23.732;2023-06-14T13:32:51;6.72;;;3.50;;
11328;SDS011;5719;42.714;23.732;2023-06-14T13:35:21;6.75;;;3.70;;
11328;SDS011;5719;42.714;23.732;2023-06-14T13:37:50;5.68;;;4.00;;
11328;SDS011;5719;42.714;23.732;2023-06-14T13:40:17;8.10;;;3.83;;
11328;SDS011;5719;42.714;23.732;2023-06-14T13:42:43;4.13;;;3.33;;
11328;SDS011;5719;42.714;23.732;2023-06-14T13:45:11;4.30;;;3.90;;
11328;SDS011;5719;42.714;23.732;2023-06-14T13:47:38;4.68;;;4.28;;
11328;SDS011;5719;42.714;23.732;2023-06-14T13:50:06;10.55;;;4.72;;
11328;SDS011;5719;42.714;23.732;2023-06-14T13:52:33;16.65;;;6.20;;
11328;SDS011;5719;42.714;23.732;2023-06-14T13:55:02;16.40;;;6.07;;
11328;SDS011;5719;42.714;23.732;2023-06-14T13:57:30;14.75;;;5.70;;
11328;SDS011;5719;42.714;23.732;2023-06-14T13:59:57;8.70;;;4.80;;
11328;SDS011;5719;42.714;23.732;2023-06-14T14:02:26;8.18;;;3.10;;
11328;SDS011;5719;42.714;23.732;2023-06-14T14:04:54;6.93;;;3.95;;
11328;SDS011;5719;42.714;23.732;2023-06-14T14:07:21;9.85;;;5.28;;
11328;SDS011;5719;42.714;23.732;2023-06-14T14:09:48;7.78;;;5.30;;
11328;SDS011;5719;42.714;23.732;2023-06-14T14:12:17;9.02;;;5.95;;
11328;SDS011;5719;42.714;23.732;2023-06-14T14:14:45;8.77;;;5.45;;
11328;SDS011;5719;42.714;23.732;2023-06-14T14:17:12;9.15;;;5.65;;
11328;SDS011;5719;42.714;23.732;2023-06-14T14:19:39;7.72;;;5.32;;
11328;SDS011;5719;42.714;23.732;2023-06-14T14:22:06;10.02;;;5.40;;
11328;SDS011;5719;42.714;23.732;2023-06-14T14:24:33;6.18;;;5.35;;
11328;SDS011;5719;42.714;23.732;2023-06-14T14:27:01;8.23;;;6.00;;
11328;SDS011;5719;42.714;23.732;2023-06-14T14:29:29;8.00;;;5.75;;
11328;SDS011;5719;42.714;23.732;2023-06-14T14:31:56;7.47;;;5.35;;
11328;SDS011;5719;42.714;23.732;2023-06-14T14:34:24;11.93;;;5.78;;
11328;SDS011;5719;42.714;23.732;2023-06-14T14:36:51;8.65;;;5.10;;
11328;SDS011;5719;42.714;23.732;2023-06-14T14:39:18;6.88;;;5.25;;
11328;SDS011;5719;42.714;23.732;2023-06-14T14:41:45;6.53;;;5.47;;
11328;SDS011;5719;42.714;23.732;2023-06-14T14:44:12;7.32;;;5.05;;
11328;SDS011;5719;42.714;23.732;2023-06-14T14:46:40;4.35;;;3.90;;
11328;SDS011;5719;42.714;23.732;2023-06-14T14:49:08;6.57;;;5.38;;
11328;SDS011;5719;42.714;23.732;2023-06-14T14:51:35;8.45;;;5.80;;
11328;SDS011;5719;42.714;23.732;2023-06-14T14:54:03;8.73;;;5.13;;
11328;SDS011;5719;42.714;23.732;2023-06-14T14:56:30;10.23;;;6.18;;